Time;durP1;ratioP1;P1;durP2;ratioP2;P2;SDS_P1;SDS_P2;PMS_P1;PMS_P2;Temp;Humidity;BMP_temperature;BMP_pressure;BME280_temperature;BME280_humidity;BME280_pressure;Samples;Min_cycle;Max_cycle;Signal;HPM_P1;HPM_P2
2021/09/15 00:00:48;;;;;;;6.63;4.77;;;21.50;99.90;;;;;;10432444;28;20630;-85
2021/09/15 00:05:50;;;;;;;4.57;4.27;;;21.50;99.90;;;;;;10418771;28;20304;-85
2021/09/15 00:10:52;;;;;;;5.60;5.20;;;21.50;99.90;;;;;;10436180;28;20231;-85
2021/09/15 00:15:55;;;;;;;5.43;5.00;;;21.50;99.90;;;;;;10417943;28;20245;-85
2021/09/15 00:20:58;;;;;;;5.57;5.07;;;21.50;99.90;;;;;;10434895;28;20205;-85
2021/09/15 00:26:49;;;;;;;5.70;5.20;;;21.50;99.90;;;;;;10395045;23;20247;-86
2021/09/15 00:50:31;;;;;;;6.00;5.50;;;21.50;99.90;;;;;;10471258;28;20656;-86
2021/09/15 06:26:43;;;;;;;12.43;9.17;;;20.70;99.90;;;;;;10545874;22;20252;-84
2021/09/15 06:31:46;;;;;;;11.30;10.30;;;20.60;99.90;;;;;;10429356;28;20296;-83
2021/09/15 06:36:48;;;;;;;9.53;8.60;;;20.60;99.90;;;;;;10447866;28;20244;-83
2021/09/15 06:41:51;;;;;;;10.73;9.73;;;20.70;99.90;;;;;;10434960;28;20333;-84
2021/09/15 06:46:53;;;;;;;10.20;9.20;;;20.70;99.90;;;;;;10473514;28;20221;-83
2021/09/15 06:51:55;;;;;;;9.67;8.80;;;20.70;99.90;;;;;;10448736;28;20208;-83
2021/09/15 06:57:00;;;;;;;9.93;8.97;;;20.70;99.90;;;;;;10438570;28;20225;-84
2021/09/15 07:02:03;;;;;;;9.33;8.53;;;20.70;99.90;;;;;;10426458;28;20278;-86
2021/09/15 07:07:05;;;;;;;9.33;8.60;;;20.70;99.90;;;;;;10421196;28;20762;-85
2021/09/15 07:18:52;;;;;;;9.17;8.47;;;20.80;99.90;;;;;;2854127;26;20224;-85
2021/09/15 07:23:54;;;;;;;9.30;8.40;;;20.80;99.90;;;;;;10514897;28;20610;-84
2021/09/15 07:29:38;;;;;;;8.97;8.27;;;20.90;99.90;;;;;;10458643;22;20244;-85
2021/09/15 07:34:48;;;;;;;7.80;7.00;;;20.90;99.90;;;;;;10228423;29;20230;-85
2021/09/15 07:40:01;;;;;;;11.60;8.27;;;21.00;99.90;;;;;;10313085;28;20232;-84
2021/09/15 07:45:07;;;;;;;10.60;8.27;;;21.00;99.90;;;;;;10221104;28;20265;-85
2021/09/15 07:50:14;;;;;;;8.50;7.43;;;21.10;99.90;;;;;;10223554;28;20248;-85
2021/09/15 07:55:25;;;;;;;7.20;6.50;;;21.20;99.90;;;;;;10234754;28;20323;-84
2021/09/15 08:00:37;;;;;;;7.80;6.23;;;21.20;99.90;;;;;;10227984;28;20230;-85
2021/09/15 08:05:42;;;;;;;7.73;6.60;;;21.20;99.90;;;;;;10211237;28;20208;-85
2021/09/15 08:10:44;;;;;;;7.67;5.90;;;21.30;99.90;;;;;;10227847;28;20259;-85
2021/09/15 08:15:46;;;;;;;6.97;6.13;;;21.30;99.90;;;;;;10282186;28;20636;-85
2021/09/15 08:20:49;;;;;;;6.83;5.73;;;21.40;99.90;;;;;;10244020;28;20604;-84
2021/09/15 08:25:52;;;;;;;5.80;5.30;;;21.40;99.90;;;;;;10226971;28;20216;-84
2021/09/15 08:30:54;;;;;;;8.50;6.20;;;21.40;99.90;;;;;;10220156;28;20237;-85
2021/09/15 08:35:58;;;;;;;9.80;6.60;;;21.40;99.90;;;;;;10226833;28;20303;-85
2021/09/15 08:41:00;;;;;;;6.60;6.10;;;21.40;99.90;;;;;;10238690;28;20560;-84
2021/09/15 08:46:05;;;;;;;6.60;5.90;;;21.50;99.90;;;;;;10243387;28;20209;-85
2021/09/15 08:51:12;;;;;;;7.77;6.97;;;21.50;99.90;;;;;;10229357;28;20227;-84
2021/09/15 08:56:14;;;;;;;7.60;6.90;;;21.40;99.90;;;;;;10231404;28;20673;-84
2021/09/15 09:01:18;;;;;;;7.40;6.80;;;21.30;99.90;;;;;;10232741;28;20232;-84
2021/09/15 09:06:24;;;;;;;10.43;6.90;;;21.30;99.90;;;;;;10232588;28;20239;-84
2021/09/15 09:11:27;;;;;;;7.37;6.77;;;21.30;99.90;;;;;;10249393;28;20225;-84
2021/09/15 09:16:42;;;;;;;7.33;6.73;;;21.20;99.90;;;;;;10232215;28;20211;-84
2021/09/15 09:21:50;;;;;;;8.27;6.13;;;21.20;99.90;;;;;;10210778;28;20323;-84
2021/09/15 09:26:54;;;;;;;6.50;6.00;;;21.20;99.90;;;;;;10231521;28;20300;-84
2021/09/15 09:32:00;;;;;;;6.73;6.20;;;21.10;99.90;;;;;;10230842;28;20236;-84
2021/09/15 09:37:06;;;;;;;7.80;5.60;;;21.00;99.90;;;;;;10230927;28;20236;-86
2021/09/15 09:42:32;;;;;;;5.80;5.30;;;20.80;99.90;;;;;;10249499;28;20638;-85
2021/09/15 09:47:40;;;;;;;7.00;6.27;;;20.70;99.90;;;;;;10222996;28;20763;-84
2021/09/15 09:52:56;;;;;;;8.50;5.93;;;20.50;99.90;;;;;;10263240;28;20211;-88
2021/09/15 09:57:58;;;;;;;10.23;6.10;;;20.50;99.90;;;;;;10230657;28;20287;-86
2021/09/15 10:03:02;;;;;;;6.40;5.87;;;20.60;99.90;;;;;;10230818;29;20266;-86
2021/09/15 10:08:07;;;;;;;6.13;5.73;;;20.70;99.90;;;;;;10216128;28;20264;-86
2021/09/15 10:13:10;;;;;;;9.57;6.43;;;20.80;99.90;;;;;;10260257;28;20292;-87
2021/09/15 10:18:13;;;;;;;6.77;6.20;;;20.90;99.90;;;;;;10258322;28;20934;-86
2021/09/15 10:23:40;;;;;;;6.80;6.20;;;21.20;99.90;;;;;;10252264;28;20629;-85
2021/09/15 10:29:20;;;;;;;6.67;5.87;;;21.40;99.90;;;;;;10250273;28;20244;-87
2021/09/15 10:34:50;;;;;;;6.17;5.57;;;21.60;99.90;;;;;;10234376;28;20200;-86
2021/09/15 10:39:56;;;;;;;6.67;5.80;;;21.80;99.90;;;;;;10247326;28;20288;-86
2021/09/15 10:45:15;;;;;;;5.70;5.20;;;22.00;99.90;;;;;;10239399;28;20201;-85
2021/09/15 10:50:51;;;;;;;6.03;5.43;;;22.10;99.90;;;;;;10314927;28;20262;-85
2021/09/15 10:55:57;;;;;;;6.80;5.90;;;22.10;99.90;;;;;;10228941;28;20283;-86
2021/09/15 11:01:01;;;;;;;6.43;5.93;;;22.00;99.90;;;;;;10261760;28;20259;-87
2021/09/15 11:06:19;;;;;;;7.63;6.90;;;22.00;99.90;;;;;;10211907;28;20204;-85
2021/09/15 11:11:52;;;;;;;6.37;5.90;;;22.00;99.90;;;;;;10224482;28;20695;-85
2021/09/15 11:17:04;;;;;;;6.90;6.30;;;22.20;99.90;;;;;;10228492;28;20201;-85
2021/09/15 11:22:06;;;;;;;7.00;6.30;;;22.30;99.90;;;;;;10212850;28;20677;-85
2021/09/15 11:27:09;;;;;;;5.90;5.40;;;22.40;99.90;;;;;;10244670;28;20287;-85
2021/09/15 11:32:13;;;;;;;6.37;5.80;;;22.50;99.90;;;;;;10245705;28;20299;-85
2021/09/15 11:37:20;;;;;;;5.53;5.13;;;22.50;99.90;;;;;;10212957;28;20208;-85
2021/09/15 11:42:25;;;;;;;6.17;5.77;;;22.60;99.90;;;;;;10229556;28;20203;-85
2021/09/15 11:47:28;;;;;;;6.50;5.80;;;22.60;99.90;;;;;;10212525;28;20232;-86
2021/09/15 11:52:30;;;;;;;6.77;6.10;;;22.50;99.90;;;;;;10212953;28;20235;-86
2021/09/15 11:57:34;;;;;;;6.83;6.13;;;22.50;99.90;;;;;;10213159;28;20313;-85
2021/09/15 12:02:38;;;;;;;6.20;5.80;;;22.40;99.90;;;;;;10258853;28;20216;-86
2021/09/15 12:07:43;;;;;;;7.20;6.50;;;22.40;99.90;;;;;;10227903;28;20220;-85
2021/09/15 12:12:47;;;;;;;6.80;6.30;;;22.40;99.90;;;;;;10227327;28;20228;-85
2021/09/15 12:17:58;;;;;;;10.20;6.37;;;22.40;99.90;;;;;;10211769;28;20229;-85
2021/09/15 12:23:01;;;;;;;6.50;6.00;;;22.50;99.90;;;;;;10227747;28;20232;-85
2021/09/15 12:28:06;;;;;;;6.83;6.33;;;22.50;99.90;;;;;;10244661;28;20766;-86
2021/09/15 12:33:08;;;;;;;6.60;5.90;;;22.50;99.90;;;;;;10233108;29;20197;-85
2021/09/15 12:38:10;;;;;;;6.83;5.63;;;22.50;99.90;;;;;;10251891;28;20684;-86
2021/09/15 12:43:14;;;;;;;6.37;5.87;;;22.50;99.90;;;;;;10235321;29;20197;-85
2021/09/15 12:48:17;;;;;;;6.20;5.70;;;22.50;99.90;;;;;;10234406;28;20225;-86
2021/09/15 12:53:19;;;;;;;6.90;5.50;;;22.60;99.90;;;;;;10218517;28;20232;-85
2021/09/15 12:58:27;;;;;;;6.00;5.50;;;22.70;99.90;;;;;;10233707;28;20241;-85
2021/09/15 13:03:36;;;;;;;6.30;5.80;;;22.80;99.90;;;;;;10217812;29;20254;-85
2021/09/15 13:08:47;;;;;;;5.57;5.10;;;22.90;99.90;;;;;;10218220;28;20256;-86
2021/09/15 13:13:51;;;;;;;6.00;5.50;;;23.10;99.90;;;;;;10232231;28;20213;-85
2021/09/15 13:18:54;;;;;;;9.03;5.27;;;23.20;99.90;;;;;;10245191;28;20215;-86
2021/09/15 13:23:56;;;;;;;6.07;5.57;;;23.30;99.90;;;;;;10234087;28;20208;-86
2021/09/15 13:28:59;;;;;;;5.70;5.30;;;23.40;99.90;;;;;;10253403;28;20286;-85
2021/09/15 13:34:01;;;;;;;5.90;5.50;;;23.40;99.90;;;;;;10243364;29;20205;-84
2021/09/15 13:39:04;;;;;;;6.07;5.63;;;23.40;99.90;;;;;;10246719;28;20299;-84
2021/09/15 13:44:07;;;;;;;6.30;5.70;;;23.40;99.90;;;;;;10237406;28;20205;-84
2021/09/15 13:49:10;;;;;;;6.70;4.57;;;23.30;99.90;;;;;;10251838;28;20208;-85
2021/09/15 13:54:12;;;;;;;5.10;4.33;;;23.20;99.90;;;;;;10250631;29;20630;-84
2021/09/15 13:59:15;;;;;;;5.60;5.20;;;23.20;99.90;;;;;;10255532;28;20244;-85
2021/09/15 14:04:18;;;;;;;5.37;4.87;;;23.20;99.90;;;;;;10270753;28;20204;-85
2021/09/15 14:09:20;;;;;;;5.63;5.13;;;23.10;99.90;;;;;;10272639;28;20216;-85
2021/09/15 14:14:23;;;;;;;5.40;5.00;;;23.20;99.90;;;;;;10268974;28;20272;-84
2021/09/15 14:19:26;;;;;;;5.07;4.57;;;23.20;99.90;;;;;;10267085;28;20646;-85
2021/09/15 14:24:28;;;;;;;5.40;4.83;;;23.10;99.90;;;;;;10242157;28;20201;-85
2021/09/15 14:29:31;;;;;;;5.70;5.30;;;23.10;99.90;;;;;;10253501;28;20237;-85
2021/09/15 14:34:34;;;;;;;5.67;5.17;;;23.10;99.90;;;;;;10286234;28;20204;-84
2021/09/15 14:39:36;;;;;;;5.80;5.30;;;23.00;99.90;;;;;;10265112;28;20217;-84
2021/09/15 14:44:39;;;;;;;5.97;5.43;;;23.00;99.90;;;;;;10282949;28;20204;-85
2021/09/15 14:49:42;;;;;;;5.83;5.23;;;23.00;99.90;;;;;;10235356;28;20216;-84
2021/09/15 14:54:44;;;;;;;5.30;4.80;;;22.90;99.90;;;;;;10240405;28;20665;-85
2021/09/15 14:59:48;;;;;;;6.03;5.00;;;22.90;99.90;;;;;;10298864;28;20287;-85
2021/09/15 15:04:50;;;;;;;6.17;5.57;;;22.80;99.90;;;;;;10274590;28;20581;-86
2021/09/15 15:09:54;;;;;;;5.33;4.83;;;22.80;99.90;;;;;;10244939;28;20228;-85
2021/09/15 15:14:58;;;;;;;6.20;5.77;;;22.80;99.90;;;;;;10240372;28;20205;-86
2021/09/15 15:20:00;;;;;;;6.30;5.80;;;22.80;99.90;;;;;;10239581;28;20240;-85
2021/09/15 15:25:05;;;;;;;5.53;5.03;;;22.70;99.90;;;;;;10267868;28;20205;-86
2021/09/15 15:30:11;;;;;;;5.07;4.37;;;22.70;99.90;;;;;;10251129;28;20271;-85
2021/09/15 15:35:14;;;;;;;6.00;5.50;;;22.70;99.90;;;;;;10274126;28;20201;-85
2021/09/15 15:40:16;;;;;;;5.40;5.10;;;22.70;99.90;;;;;;10285531;28;20220;-85
2021/09/15 15:45:20;;;;;;;5.97;5.47;;;22.60;99.90;;;;;;10261335;28;20205;-84
2021/09/15 15:50:22;;;;;;;5.00;4.70;;;22.70;99.90;;;;;;10297579;28;20248;-85
2021/09/15 15:55:24;;;;;;;5.90;5.30;;;22.60;99.90;;;;;;10286389;28;20255;-85
2021/09/15 16:00:28;;;;;;;5.90;5.37;;;22.60;99.90;;;;;;10295700;28;20700;-85
2021/09/15 16:05:30;;;;;;;7.40;5.77;;;22.50;99.90;;;;;;10276831;28;20556;-84
2021/09/15 16:10:33;;;;;;;5.33;4.83;;;22.50;99.90;;;;;;10253651;29;20228;-85
2021/09/15 16:15:36;;;;;;;5.73;5.33;;;22.40;99.90;;;;;;10265837;28;20201;-85
2021/09/15 16:20:39;;;;;;;7.93;5.57;;;22.40;99.90;;;;;;10270230;28;20249;-85
2021/09/15 16:25:41;;;;;;;7.97;5.73;;;22.30;99.90;;;;;;10234912;28;20205;-84
2021/09/15 16:30:44;;;;;;;5.90;5.40;;;22.30;99.90;;;;;;10277155;28;20229;-85
2021/09/15 16:35:48;;;;;;;6.23;5.73;;;22.20;99.90;;;;;;10247873;28;20267;-84
2021/09/15 16:40:50;;;;;;;6.77;6.07;;;22.20;99.90;;;;;;10281404;28;20282;-85
2021/09/15 16:45:53;;;;;;;5.97;5.57;;;22.10;99.90;;;;;;10269232;28;20208;-84
2021/09/15 16:50:56;;;;;;;6.37;5.87;;;22.00;99.90;;;;;;10272939;28;20719;-84
2021/09/15 16:55:58;;;;;;;5.87;5.37;;;22.00;99.90;;;;;;10256148;28;20189;-85
2021/09/15 17:01:02;;;;;;;7.90;6.13;;;22.00;99.90;;;;;;10276971;28;20225;-85
2021/09/15 17:06:04;;;;;;;6.33;5.83;;;21.90;99.90;;;;;;10288934;28;20203;-84
2021/09/15 17:11:08;;;;;;;7.43;6.73;;;21.90;99.90;;;;;;10291624;28;20219;-84
2021/09/15 17:16:11;;;;;;;8.20;6.17;;;21.90;99.90;;;;;;10289920;28;20200;-84
2021/09/15 17:21:14;;;;;;;6.50;6.10;;;21.90;99.90;;;;;;10295069;28;20222;-84
2021/09/15 17:26:16;;;;;;;6.50;5.90;;;21.80;99.90;;;;;;10281380;28;20200;-84
2021/09/15 17:31:20;;;;;;;6.57;6.00;;;21.70;99.90;;;;;;10473286;28;20256;-84
2021/09/15 17:36:22;;;;;;;7.07;5.93;;;21.70;99.90;;;;;;10463871;28;20193;-84
2021/09/15 17:41:24;;;;;;;10.20;6.17;;;21.70;99.90;;;;;;10448918;28;20691;-84
2021/09/15 17:46:28;;;;;;;9.73;5.80;;;21.60;99.90;;;;;;10454945;28;20181;-84
2021/09/15 17:51:30;;;;;;;7.27;6.57;;;21.60;99.90;;;;;;10454046;28;20268;-84
2021/09/15 17:56:32;;;;;;;6.50;5.90;;;21.60;99.90;;;;;;10454862;28;20197;-84
2021/09/15 18:01:36;;;;;;;7.33;5.93;;;21.50;99.90;;;;;;10468499;28;20693;-84
2021/09/15 18:06:38;;;;;;;6.57;5.57;;;21.50;99.90;;;;;;10450400;28;20216;-84
2021/09/15 18:11:41;;;;;;;5.67;5.20;;;21.40;99.90;;;;;;10452846;28;20229;-84
2021/09/15 18:16:45;;;;;;;6.23;4.57;;;21.40;99.90;;;;;;10473499;28;20197;-83
2021/09/15 18:21:47;;;;;;;5.13;4.63;;;21.40;99.90;;;;;;10446053;28;20225;-84
2021/09/15 18:26:49;;;;;;;5.30;4.27;;;21.40;99.90;;;;;;10475105;28;20221;-85
2021/09/15 18:31:53;;;;;;;7.17;5.23;;;21.40;99.90;;;;;;10438602;28;20225;-84
2021/09/15 18:36:57;;;;;;;6.10;4.00;;;21.40;99.90;;;;;;10448771;28;20216;-84
2021/09/15 18:41:59;;;;;;;4.77;4.30;;;21.40;99.90;;;;;;10444735;28;20267;-84
2021/09/15 18:47:03;;;;;;;3.90;3.70;;;21.40;99.90;;;;;;10440254;28;20209;-84
2021/09/15 18:52:07;;;;;;;5.33;4.13;;;21.40;99.90;;;;;;10447072;28;20225;-85
2021/09/15 18:57:12;;;;;;;4.77;4.03;;;21.40;99.90;;;;;;10456582;28;20573;-85
2021/09/15 19:02:15;;;;;;;3.93;3.63;;;21.50;99.90;;;;;;10246353;28;20237;-85
2021/09/15 19:07:19;;;;;;;5.10;4.13;;;21.40;99.90;;;;;;10245782;28;20197;-85
2021/09/15 19:12:21;;;;;;;3.60;3.40;;;21.40;99.90;;;;;;10246652;28;20236;-84
2021/09/15 19:17:27;;;;;;;3.50;3.20;;;21.40;99.90;;;;;;10232442;28;20235;-84
2021/09/15 19:22:29;;;;;;;4.40;4.10;;;21.40;99.90;;;;;;10253919;28;20188;-84
2021/09/15 19:27:31;;;;;;;4.30;4.00;;;21.40;99.90;;;;;;10282260;28;20697;-86
2021/09/15 19:32:35;;;;;;;4.30;3.90;;;21.40;99.90;;;;;;10436879;28;20221;-85
2021/09/15 19:37:38;;;;;;;4.10;3.80;;;21.40;99.90;;;;;;10436888;28;20220;-85
2021/09/15 19:42:40;;;;;;;3.70;3.20;;;21.40;99.90;;;;;;10436169;28;20228;-85
2021/09/15 19:47:44;;;;;;;3.80;3.50;;;21.40;99.90;;;;;;10419903;28;20225;-85
2021/09/15 19:52:47;;;;;;;4.33;3.93;;;21.30;99.90;;;;;;10452611;28;20228;-85
2021/09/15 19:57:49;;;;;;;4.07;3.70;;;21.30;99.90;;;;;;10420567;28;20226;-85
2021/09/15 20:02:53;;;;;;;3.63;2.77;;;21.30;99.90;;;;;;10436211;28;20193;-86
2021/09/15 20:07:57;;;;;;;4.00;3.70;;;21.30;99.90;;;;;;10436879;28;20733;-84
2021/09/15 20:12:59;;;;;;;4.37;3.97;;;21.20;99.90;;;;;;10451891;28;20229;-84
2021/09/15 20:18:03;;;;;;;4.00;3.80;;;21.20;99.90;;;;;;10419194;28;20229;-84
2021/09/15 20:23:06;;;;;;;4.07;3.77;;;21.10;99.90;;;;;;10437380;28;20193;-84
2021/09/15 20:28:08;;;;;;;4.23;3.83;;;21.00;99.90;;;;;;10436358;28;20233;-86
2021/09/15 20:33:11;;;;;;;4.30;3.80;;;21.00;99.90;;;;;;10436138;28;20213;-84
2021/09/15 20:38:13;;;;;;;6.00;4.10;;;21.00;99.90;;;;;;10419246;28;20340;-85
2021/09/15 20:43:16;;;;;;;4.27;3.97;;;21.00;99.90;;;;;;10433656;28;20288;-83
2021/09/15 20:48:19;;;;;;;3.90;3.70;;;20.90;99.90;;;;;;10430440;28;20340;-85
2021/09/15 20:53:21;;;;;;;3.97;3.77;;;20.90;99.90;;;;;;10459518;28;20220;-85
2021/09/15 20:58:23;;;;;;;3.70;3.50;;;20.90;99.90;;;;;;10396357;28;20727;-84
2021/09/15 21:03:27;;;;;;;3.60;3.40;;;20.90;99.90;;;;;;10250596;28;20228;-84
2021/09/15 21:08:29;;;;;;;3.40;3.20;;;20.80;99.90;;;;;;10231542;28;20704;-84
2021/09/15 21:13:31;;;;;;;4.53;3.80;;;20.80;99.90;;;;;;10267658;28;20300;-85
2021/09/15 21:18:35;;;;;;;4.00;3.73;;;20.80;99.90;;;;;;10227790;28;20315;-83
2021/09/15 21:23:37;;;;;;;4.27;3.87;;;20.80;99.90;;;;;;10248964;28;20279;-84
2021/09/15 21:28:39;;;;;;;3.60;3.40;;;20.80;99.90;;;;;;10349709;28;20257;-84
2021/09/15 21:33:42;;;;;;;3.90;3.60;;;20.80;99.90;;;;;;10424558;28;20228;-85
2021/09/15 21:38:45;;;;;;;3.57;3.37;;;20.80;99.90;;;;;;10424822;28;20221;-85
2021/09/15 21:43:47;;;;;;;3.30;3.10;;;20.80;99.90;;;;;;10440598;28;20689;-84
2021/09/15 21:48:50;;;;;;;3.47;3.10;;;20.80;99.90;;;;;;10457741;28;20577;-84
2021/09/15 21:53:52;;;;;;;3.40;3.20;;;20.80;99.90;;;;;;10424842;28;20233;-85
2021/09/15 21:58:55;;;;;;;3.53;3.20;;;20.90;99.90;;;;;;10439909;28;20286;-85
2021/09/15 22:03:58;;;;;;;3.73;3.43;;;20.90;99.90;;;;;;10410913;28;20296;-84
2021/09/15 22:09:00;;;;;;;3.90;3.60;;;20.80;99.90;;;;;;10249109;28;20225;-85
2021/09/15 22:14:03;;;;;;;3.10;2.90;;;20.80;99.90;;;;;;10215103;29;20232;-85
2021/09/15 22:19:07;;;;;;;3.60;3.40;;;20.80;99.90;;;;;;10217781;28;20252;-83
2021/09/15 22:24:09;;;;;;;4.37;3.70;;;20.70;99.90;;;;;;10230742;29;20197;-83
2021/09/15 22:29:11;;;;;;;2.97;2.83;;;20.70;99.90;;;;;;10339906;28;20247;-84
2021/09/15 22:34:15;;;;;;;3.27;3.07;;;20.70;99.90;;;;;;10439638;28;20231;-83
2021/09/15 22:39:17;;;;;;;3.33;3.13;;;20.60;99.90;;;;;;10455382;28;20235;-84
2021/09/15 22:44:19;;;;;;;3.57;3.27;;;20.50;99.90;;;;;;10251037;28;20207;-83
2021/09/15 22:49:23;;;;;;;3.60;3.40;;;20.50;99.90;;;;;;10230303;28;20229;-85
2021/09/15 22:54:25;;;;;;;3.60;3.40;;;20.50;99.90;;;;;;10230927;28;20239;-85
2021/09/15 22:59:27;;;;;;;3.50;3.30;;;20.50;99.90;;;;;;10219835;28;20571;-83
2021/09/15 23:04:30;;;;;;;2.90;2.80;;;20.40;99.90;;;;;;10270467;28;20193;-87
2021/09/15 23:09:32;;;;;;;2.83;2.70;;;20.30;99.90;;;;;;10247436;28;20244;-85
2021/09/15 23:14:35;;;;;;;3.20;3.00;;;20.40;99.90;;;;;;10261689;28;20753;-84
2021/09/15 23:19:38;;;;;;;3.80;3.30;;;20.40;99.90;;;;;;10262311;28;20719;-82
2021/09/15 23:24:40;;;;;;;3.07;2.87;;;20.40;99.90;;;;;;10262041;28;20384;-85
2021/09/15 23:29:43;;;;;;;2.97;2.70;;;20.40;99.90;;;;;;10374603;28;20279;-85
2021/09/15 23:34:46;;;;;;;2.83;2.73;;;20.40;99.90;;;;;;10454883;28;20217;-85
2021/09/15 23:39:49;;;;;;;3.47;2.83;;;20.40;99.90;;;;;;10422014;28;20248;-87
2021/09/15 23:44:51;;;;;;;2.60;2.37;;;20.40;99.90;;;;;;10430316;28;20693;-85
2021/09/15 23:49:54;;;;;;;2.97;2.67;;;20.40;99.90;;;;;;10436497;28;20225;-85
2021/09/15 23:54:56;;;;;;;3.10;2.80;;;20.30;99.90;;;;;;10420356;28;20204;-84
2021/09/15 23:59:58;;;;;;;2.23;2.03;;;20.40;99.90;;;;;;10435745;28;20260;-86
